Grissom ARB Airport Peru US
ICAO: KGUS
IATA: GUS
Category: Large
Scheduled Services: No

Elevation: 812 ft
TransAlt. 18000 ft.

Airport Communications:
APP:121.05
ATIS:108.45
CLNC DEL:120
DEP:121.05
GND:128.425
PMSV METRO:34.46
PTD:37.22
TWR:133.7

KGUS Zoom In..

If you have problems with the map follow the link
https://www.worldairports.se/pages/airport.php?
ICAO=KGUS

Runways:

(A) RW 05 length 12501 ft width 200 ft
ILS 109.50 / hdg 46

(B) RW 23 length 12501 ft width 200 ft
ILS 109.50 / hdg 226

Location; KGUS
Day. 17 / Time. 01.56 Zulu
* Altimeter: 30.09
* Temperature: 02° c. 35.6°f.
* Wind from: 250° Speed 08 kn.
Dewpoint: 02° c.
Visibility: 10 Statute Miles.
Clouds: Overcast 2100 ft.

KGUS 170156Z AUTO 25008KT 10SM OVC021 02/02 A3009 RMK AO2 SLP201 T00240023 $


Wind From 250°
Speed 08 kn.

 
 
jpsmedia.com for Web Design worldairports.se 2018   terms of use